Time;durP1;ratioP1;P1;durP2;ratioP2;P2;SDS_P1;SDS_P2;PMS_P1;PMS_P2;Temp;Humidity;BMP_temperature;BMP_pressure;BME280_temperature;BME280_humidity;BME280_pressure;Samples;Min_cycle;Max_cycle;Signal;HPM_P1;HPM_P2
2022/10/29 00:00:33;;;;;;;5.73;4.10;;;14.70;99.90;;;;;;448499;265;28446;-68
2022/10/29 00:02:34;;;;;;;11.03;4.67;;;14.60;99.90;;;;;;448488;265;28542;-68
2022/10/29 00:04:35;;;;;;;5.50;4.27;;;14.60;99.90;;;;;;448547;265;29060;-68
2022/10/29 00:06:37;;;;;;;8.23;5.00;;;14.60;99.90;;;;;;448506;265;28502;-69
2022/10/29 00:08:38;;;;;;;6.73;4.60;;;14.60;99.90;;;;;;448509;265;28528;-69
2022/10/29 00:10:39;;;;;;;6.00;4.37;;;14.50;99.90;;;;;;448484;265;28775;-68
2022/10/29 00:12:40;;;;;;;4.90;4.23;;;14.50;99.90;;;;;;448501;265;28580;-69
2022/10/29 00:14:42;;;;;;;6.50;4.50;;;14.50;99.90;;;;;;448529;265;29079;-71
2022/10/29 00:16:43;;;;;;;6.33;4.43;;;14.50;99.90;;;;;;448530;265;29514;-68
2022/10/29 00:18:44;;;;;;;7.77;4.00;;;14.50;99.90;;;;;;448500;265;29060;-69
2022/10/29 00:20:47;;;;;;;6.50;4.23;;;14.50;99.90;;;;;;448518;265;28536;-68
2022/10/29 00:22:47;;;;;;;5.43;4.33;;;14.50;99.90;;;;;;448443;264;28474;-68
2022/10/29 00:24:48;;;;;;;9.33;5.73;;;14.50;99.90;;;;;;448513;265;28594;-71
2022/10/29 00:26:49;;;;;;;5.27;3.97;;;14.40;99.90;;;;;;444430;265;28569;-69
2022/10/29 00:28:50;;;;;;;4.90;4.13;;;14.40;99.90;;;;;;443851;268;28359;-70
2022/10/29 00:30:52;;;;;;;4.53;4.13;;;14.40;99.90;;;;;;443425;268;28295;-69
2022/10/29 00:32:53;;;;;;;5.07;3.70;;;14.40;99.90;;;;;;448463;265;28602;-68
2022/10/29 00:34:54;;;;;;;5.47;4.37;;;14.40;99.90;;;;;;467305;247;28254;-71
2022/10/29 00:36:56;;;;;;;4.90;3.57;;;14.40;99.90;;;;;;473235;247;28377;-69
2022/10/29 00:38:57;;;;;;;7.60;4.50;;;14.40;99.90;;;;;;472831;251;28672;-69
2022/10/29 00:40:58;;;;;;;5.43;4.03;;;14.40;99.90;;;;;;472826;251;28940;-68
2022/10/29 00:42:59;;;;;;;9.87;4.27;;;14.40;99.90;;;;;;474093;247;28692;-69
2022/10/29 00:45:01;;;;;;;7.40;4.13;;;14.40;99.90;;;;;;474749;247;28258;-71
2022/10/29 00:47:02;;;;;;;7.10;4.67;;;14.40;99.90;;;;;;480503;247;28281;-68
2022/10/29 00:49:03;;;;;;;8.97;6.00;;;14.40;99.90;;;;;;473382;247;28470;-69
2022/10/29 00:51:04;;;;;;;8.37;4.87;;;14.30;99.90;;;;;;472870;251;28378;-69
2022/10/29 00:53:06;;;;;;;5.87;4.00;;;14.30;99.90;;;;;;472939;251;28371;-69
2022/10/29 00:55:07;;;;;;;6.80;3.93;;;14.50;99.90;;;;;;472927;251;28286;-69
2022/10/29 00:57:08;;;;;;;5.97;4.70;;;14.60;99.90;;;;;;472940;251;28213;-68
2022/10/29 00:59:09;;;;;;;6.93;4.20;;;14.60;99.90;;;;;;472919;251;28846;-70
2022/10/29 01:01:11;;;;;;;6.93;3.97;;;14.50;99.90;;;;;;472942;251;29072;-71
2022/10/29 01:03:12;;;;;;;5.80;4.27;;;14.50;99.90;;;;;;472928;251;28981;-68
2022/10/29 01:05:13;;;;;;;5.37;3.90;;;14.40;99.90;;;;;;472947;251;29300;-69
2022/10/29 01:07:14;;;;;;;4.27;3.87;;;14.30;99.90;;;;;;472936;251;28244;-69
2022/10/29 01:09:16;;;;;;;4.43;3.97;;;14.20;99.90;;;;;;472921;251;28446;-68
2022/10/29 01:11:17;;;;;;;4.83;3.90;;;14.20;99.90;;;;;;472931;251;28226;-68
2022/10/29 01:13:18;;;;;;;7.90;4.17;;;14.20;99.90;;;;;;475033;247;28201;-68
2022/10/29 01:15:19;;;;;;;10.90;4.73;;;14.20;99.90;;;;;;476406;247;28381;-70
2022/10/29 01:17:21;;;;;;;5.23;3.53;;;14.10;99.90;;;;;;480401;247;28842;-68
2022/10/29 01:19:22;;;;;;;3.87;3.50;;;14.20;99.90;;;;;;480381;247;28247;-68
2022/10/29 01:21:23;;;;;;;5.23;4.27;;;14.20;99.90;;;;;;480356;247;28651;-69
2022/10/29 01:23:24;;;;;;;4.10;3.70;;;14.20;99.90;;;;;;480439;247;28772;-68
2022/10/29 01:25:26;;;;;;;7.10;3.53;;;14.20;99.90;;;;;;480543;247;28801;-69
2022/10/29 01:27:27;;;;;;;4.33;3.43;;;14.30;99.90;;;;;;480536;247;28788;-68
2022/10/29 01:29:28;;;;;;;4.07;3.53;;;14.20;99.90;;;;;;480536;247;28286;-69
2022/10/29 01:31:29;;;;;;;4.40;3.67;;;14.20;99.90;;;;;;480555;247;28337;-71
2022/10/29 01:33:31;;;;;;;5.10;3.07;;;14.10;99.90;;;;;;480542;247;28312;-68
2022/10/29 01:35:33;;;;;;;7.67;3.20;;;14.10;99.90;;;;;;480543;247;28446;-70
2022/10/29 01:37:33;;;;;;;6.73;3.47;;;14.00;99.90;;;;;;480520;247;28195;-68
2022/10/29 01:39:35;;;;;;;4.97;3.47;;;14.00;99.90;;;;;;480512;247;28463;-69
2022/10/29 01:41:36;;;;;;;3.57;3.20;;;14.00;99.90;;;;;;480538;247;28243;-71
2022/10/29 01:43:38;;;;;;;4.33;3.70;;;;;;;;;;476402;247;28260;-67
2022/10/29 01:45:39;;;;;;;5.03;3.63;;;14.00;99.90;;;;;;474351;247;26563;-68
2022/10/29 01:47:41;;;;;;;3.90;3.50;;;14.00;99.90;;;;;;474531;247;28262;-68
2022/10/29 01:49:42;;;;;;;7.53;4.40;;;13.90;99.90;;;;;;476525;247;28295;-68
2022/10/29 01:51:43;;;;;;;7.50;4.17;;;13.90;99.90;;;;;;476514;247;28326;-69
2022/10/29 01:53:44;;;;;;;7.23;4.10;;;13.90;99.90;;;;;;475080;247;28161;-69
2022/10/29 01:55:46;;;;;;;6.23;4.40;;;13.90;99.90;;;;;;479964;247;28310;-68
2022/10/29 01:57:47;;;;;;;8.27;4.30;;;13.90;99.90;;;;;;479966;247;28350;-69
2022/10/29 01:59:48;;;;;;;5.27;3.87;;;13.90;99.90;;;;;;473272;247;28670;-71
2022/10/29 02:01:50;;;;;;;8.40;3.80;;;13.90;99.90;;;;;;478514;247;28763;-68
2022/10/29 02:03:51;;;;;;;4.80;4.00;;;13.80;99.90;;;;;;479551;247;28259;-69
2022/10/29 02:05:52;;;;;;;6.77;4.30;;;13.80;99.90;;;;;;474194;247;28853;-68
2022/10/29 02:07:53;;;;;;;8.50;4.87;;;13.80;99.90;;;;;;480528;247;28239;-69
2022/10/29 02:09:55;;;;;;;5.50;4.37;;;13.80;99.90;;;;;;480520;247;28352;-71
2022/10/29 02:11:56;;;;;;;5.40;4.33;;;13.70;99.90;;;;;;480529;247;28257;-68
2022/10/29 02:13:58;;;;;;;7.20;4.60;;;;;;;;;;480525;247;28449;-69
2022/10/29 02:15:59;;;;;;;5.47;3.93;;;13.70;99.90;;;;;;480476;247;27444;-69
2022/10/29 02:18:01;;;;;;;3.73;3.33;;;13.80;99.90;;;;;;480544;247;28546;-72
2022/10/29 02:20:02;;;;;;;4.27;3.73;;;13.70;99.90;;;;;;480519;247;28338;-69
2022/10/29 02:22:03;;;;;;;5.80;3.83;;;13.80;99.90;;;;;;480528;247;28375;-69
2022/10/29 02:24:04;;;;;;;4.70;3.70;;;13.80;99.90;;;;;;480530;247;28066;-69
2022/10/29 02:26:06;;;;;;;4.73;3.73;;;13.80;99.90;;;;;;480530;247;28293;-69
2022/10/29 02:28:07;;;;;;;8.43;4.00;;;13.80;99.90;;;;;;480414;247;28397;-71
2022/10/29 02:30:09;;;;;;;5.83;4.20;;;;;;;;;;476081;247;28648;-68
2022/10/29 02:32:11;;;;;;;8.90;3.70;;;13.70;99.90;;;;;;480519;247;26481;-69
2022/10/29 02:34:12;;;;;;;6.93;4.87;;;13.80;99.90;;;;;;480521;247;28229;-68
2022/10/29 02:36:13;;;;;;;6.93;4.50;;;13.80;99.90;;;;;;475634;247;28308;-68
2022/10/29 02:38:14;;;;;;;6.97;4.30;;;13.90;99.90;;;;;;472816;251;28144;-68
2022/10/29 02:40:16;;;;;;;8.63;3.27;;;13.90;99.90;;;;;;472846;251;28805;-70
2022/10/29 02:42:17;;;;;;;8.20;4.30;;;13.90;99.90;;;;;;472844;251;28869;-69
2022/10/29 02:44:18;;;;;;;5.40;4.70;;;13.90;99.90;;;;;;472836;251;28532;-69
2022/10/29 02:46:19;;;;;;;5.70;4.20;;;13.90;99.90;;;;;;474995;247;29079;-71
2022/10/29 02:48:21;;;;;;;4.90;4.40;;;13.80;99.90;;;;;;473399;247;28712;-68
2022/10/29 02:50:22;;;;;;;5.40;4.30;;;13.80;99.90;;;;;;474889;247;28697;-70
2022/10/29 02:52:24;;;;;;;7.50;4.60;;;;;;;;;;476559;247;28659;-69
2022/10/29 02:54:27;;;;;;;6.73;4.50;;;;;;;;;;480564;247;26514;-69
2022/10/29 02:56:28;;;;;;;11.87;4.53;;;13.80;99.90;;;;;;480544;247;26584;-70
2022/10/29 02:58:29;;;;;;;5.60;4.40;;;13.80;99.90;;;;;;480548;247;28196;-68
2022/10/29 03:00:31;;;;;;;7.17;4.33;;;13.70;99.90;;;;;;475761;247;28311;-70
2022/10/29 03:02:32;;;;;;;5.03;4.07;;;13.70;99.90;;;;;;478303;247;28209;-68
2022/10/29 03:04:33;;;;;;;5.57;4.27;;;13.70;99.90;;;;;;480544;247;28832;-69
2022/10/29 03:06:34;;;;;;;7.23;3.70;;;13.70;99.90;;;;;;477967;247;28954;-70
2022/10/29 03:08:36;;;;;;;8.83;3.70;;;13.70;99.90;;;;;;472851;251;28782;-69
2022/10/29 03:10:37;;;;;;;4.97;3.60;;;13.60;99.90;;;;;;472840;251;28736;-69
2022/10/29 03:12:38;;;;;;;3.97;3.50;;;13.60;99.90;;;;;;472826;251;29423;-69
2022/10/29 03:14:39;;;;;;;8.50;4.63;;;13.50;99.90;;;;;;472860;251;28733;-69
2022/10/29 03:16:41;;;;;;;10.40;4.40;;;13.40;99.90;;;;;;472838;251;28323;-71
2022/10/29 03:18:42;;;;;;;11.40;4.27;;;13.30;99.90;;;;;;472863;251;28252;-70
2022/10/29 03:20:44;;;;;;;6.27;3.90;;;13.30;99.90;;;;;;472882;251;28389;-69
2022/10/29 03:22:44;;;;;;;8.67;4.10;;;13.30;99.90;;;;;;472847;251;28172;-68
2022/10/29 03:24:46;;;;;;;4.90;4.33;;;13.40;99.90;;;;;;472881;251;28309;-69
2022/10/29 03:26:47;;;;;;;4.80;4.00;;;13.40;99.90;;;;;;472863;251;28369;-69
2022/10/29 03:28:48;;;;;;;5.53;4.17;;;13.40;99.90;;;;;;472868;251;28841;-68
2022/10/29 03:30:49;;;;;;;5.77;4.17;;;13.40;99.90;;;;;;473358;247;28771;-69
2022/10/29 03:32:51;;;;;;;7.60;4.03;;;13.40;99.90;;;;;;475682;247;29033;-68
2022/10/29 03:34:52;;;;;;;4.73;4.00;;;13.50;99.90;;;;;;473622;247;28602;-69
2022/10/29 03:36:53;;;;;;;5.53;4.63;;;13.50;99.90;;;;;;476938;247;28771;-69
2022/10/29 03:38:56;;;;;;;11.70;4.73;;;;;;;;;;472867;251;28628;-68
2022/10/29 03:40:58;;;;;;;5.30;4.20;;;;;;;;;;472866;251;27229;-69
2022/10/29 03:42:59;;;;;;;4.50;3.70;;;13.50;99.90;;;;;;472854;251;26544;-71
2022/10/29 03:45:00;;;;;;;7.27;4.30;;;13.60;99.90;;;;;;472858;251;28346;-68
2022/10/29 03:47:02;;;;;;;4.33;3.93;;;13.60;99.90;;;;;;472860;251;28269;-69
2022/10/29 03:49:03;;;;;;;5.27;3.70;;;13.60;99.90;;;;;;472861;251;28376;-68
2022/10/29 03:51:07;;;;;;;5.10;4.10;;;13.60;99.90;;;;;;472665;251;28820;-69
2022/10/29 03:53:09;;;;;;;4.13;3.60;;;13.60;99.90;;;;;;472875;251;28813;-68
2022/10/29 03:55:10;;;;;;;4.10;3.43;;;13.60;99.90;;;;;;472867;251;28861;-69
2022/10/29 03:57:11;;;;;;;3.93;3.40;;;13.60;99.90;;;;;;472844;251;28860;-68
2022/10/29 03:59:12;;;;;;;6.07;3.70;;;13.60;99.90;;;;;;472852;251;28199;-68
2022/10/29 04:01:14;;;;;;;6.47;3.70;;;13.60;99.90;;;;;;472953;247;28362;-70
2022/10/29 04:03:15;;;;;;;5.53;3.43;;;13.60;99.90;;;;;;475405;247;28776;-68
2022/10/29 04:05:16;;;;;;;7.03;4.40;;;13.50;99.90;;;;;;473822;247;28306;-69
2022/10/29 04:07:17;;;;;;;5.03;4.13;;;13.50;99.90;;;;;;478844;247;28346;-68
2022/10/29 04:09:19;;;;;;;6.10;4.40;;;13.50;99.90;;;;;;480539;247;28824;-69
2022/10/29 04:11:21;;;;;;;5.47;3.70;;;;;;;;;;480549;247;28275;-69
2022/10/29 04:13:22;;;;;;;4.17;3.77;;;13.50;99.90;;;;;;480511;247;26653;-69
2022/10/29 04:15:24;;;;;;;4.30;3.90;;;13.50;99.90;;;;;;480530;247;28356;-68
2022/10/29 04:17:25;;;;;;;6.43;3.43;;;13.50;99.90;;;;;;480551;247;28524;-69
2022/10/29 04:19:26;;;;;;;4.10;3.70;;;13.40;99.90;;;;;;480530;247;28457;-71
2022/10/29 04:21:28;;;;;;;7.93;3.80;;;13.40;99.90;;;;;;480530;247;28368;-69
2022/10/29 04:23:29;;;;;;;6.50;4.53;;;13.40;99.90;;;;;;480541;247;28250;-69
2022/10/29 04:25:31;;;;;;;5.63;3.80;;;;;;;;;;480545;247;28246;-68
2022/10/29 04:27:32;;;;;;;7.03;4.20;;;13.40;99.90;;;;;;480543;247;26550;-70
2022/10/29 04:29:34;;;;;;;4.80;4.30;;;13.50;99.90;;;;;;480540;247;28325;-69
2022/10/29 04:31:36;;;;;;;4.70;3.70;;;;;;;;;;480545;247;28918;-69
2022/10/29 04:33:37;;;;;;;4.93;4.30;;;13.60;99.90;;;;;;478951;247;26996;-69
2022/10/29 04:35:39;;;;;;;5.40;4.13;;;13.60;99.90;;;;;;478821;247;28104;-69
2022/10/29 04:37:40;;;;;;;5.23;4.10;;;13.70;99.90;;;;;;476413;247;28337;-69
2022/10/29 04:39:41;;;;;;;3.90;3.43;;;13.70;99.90;;;;;;480557;247;28767;-69
2022/10/29 04:41:42;;;;;;;4.23;3.63;;;13.70;99.90;;;;;;480527;247;28841;-70
2022/10/29 04:43:44;;;;;;;4.90;3.80;;;13.70;99.90;;;;;;480531;247;28855;-68
2022/10/29 04:45:45;;;;;;;5.27;4.07;;;13.80;99.90;;;;;;480537;247;28357;-69
2022/10/29 04:47:46;;;;;;;4.90;3.63;;;13.80;99.90;;;;;;480539;247;28234;-69
2022/10/29 04:49:48;;;;;;;5.13;4.50;;;13.80;99.90;;;;;;480527;247;28145;-70
2022/10/29 04:51:49;;;;;;;3.90;3.30;;;13.80;99.90;;;;;;480536;247;28379;-71
2022/10/29 04:53:50;;;;;;;4.07;3.67;;;13.80;99.90;;;;;;480538;247;28209;-69
2022/10/29 04:55:51;;;;;;;4.80;3.83;;;13.90;99.90;;;;;;480525;247;28160;-69
2022/10/29 04:57:53;;;;;;;3.93;3.53;;;13.90;99.90;;;;;;480535;247;28681;-72
2022/10/29 04:59:54;;;;;;;5.50;4.17;;;13.90;99.90;;;;;;480560;247;28799;-69
2022/10/29 05:01:55;;;;;;;5.20;4.00;;;14.00;99.90;;;;;;480533;247;29015;-69
2022/10/29 05:03:56;;;;;;;7.00;4.57;;;14.00;99.90;;;;;;480522;247;28625;-68
2022/10/29 05:05:58;;;;;;;9.33;3.97;;;14.00;99.90;;;;;;475253;247;28295;-69
2022/10/29 05:07:59;;;;;;;4.60;3.57;;;13.90;99.90;;;;;;473319;247;28393;-72
2022/10/29 05:10:00;;;;;;;5.40;4.17;;;13.90;99.90;;;;;;480494;247;28442;-69
2022/10/29 05:12:01;;;;;;;7.93;4.60;;;13.90;99.90;;;;;;480521;247;28828;-69
2022/10/29 05:14:03;;;;;;;7.07;4.50;;;13.80;99.90;;;;;;480516;247;28707;-69
2022/10/29 05:16:04;;;;;;;5.53;4.03;;;13.80;99.90;;;;;;480525;247;28802;-69
2022/10/29 05:18:05;;;;;;;5.20;4.20;;;13.70;99.90;;;;;;480521;247;28138;-71
2022/10/29 05:20:06;;;;;;;5.00;4.33;;;13.80;99.90;;;;;;480544;247;28117;-69
2022/10/29 05:22:10;;;;;;;5.77;4.67;;;;;;;;;;480520;247;28352;-69
2022/10/29 05:24:10;;;;;;;7.20;4.20;;;13.80;99.90;;;;;;480498;247;27488;-69
2022/10/29 05:26:11;;;;;;;5.47;4.60;;;13.90;99.90;;;;;;480506;247;28930;-71
2022/10/29 05:28:13;;;;;;;6.63;4.50;;;14.00;99.90;;;;;;480530;247;28761;-68
2022/10/29 05:30:14;;;;;;;8.10;4.20;;;14.00;99.90;;;;;;480530;247;28830;-70
2022/10/29 05:32:15;;;;;;;8.77;4.67;;;14.10;99.90;;;;;;480538;247;28928;-69
2022/10/29 05:34:16;;;;;;;6.17;3.90;;;14.10;99.90;;;;;;480520;247;28114;-69
2022/10/29 05:36:18;;;;;;;5.47;3.93;;;14.20;99.90;;;;;;479847;247;28134;-72
2022/10/29 05:38:19;;;;;;;5.10;3.90;;;14.20;99.90;;;;;;475837;247;28364;-69
2022/10/29 05:40:20;;;;;;;5.83;4.37;;;14.20;99.90;;;;;;472887;251;28391;-70
2022/10/29 05:42:21;;;;;;;5.00;4.10;;;14.20;99.90;;;;;;472850;251;28247;-68
2022/10/29 05:44:23;;;;;;;3.53;3.23;;;14.20;99.90;;;;;;478870;247;28245;-69
2022/10/29 05:46:24;;;;;;;4.00;3.47;;;14.20;99.90;;;;;;480544;247;28250;-71
2022/10/29 05:48:25;;;;;;;3.33;3.03;;;14.20;99.90;;;;;;480494;247;28676;-69
2022/10/29 05:50:26;;;;;;;3.77;3.23;;;14.30;99.90;;;;;;480540;247;28878;-68
2022/10/29 05:52:28;;;;;;;3.27;3.07;;;14.30;99.90;;;;;;480538;247;29197;-68
2022/10/29 05:54:29;;;;;;;4.53;3.20;;;14.30;99.90;;;;;;480522;247;28744;-68
2022/10/29 05:56:30;;;;;;;3.53;3.23;;;14.30;99.90;;;;;;480532;247;28247;-70
2022/10/29 05:58:31;;;;;;;6.00;3.20;;;14.30;99.90;;;;;;480512;247;28428;-68
2022/10/29 06:00:33;;;;;;;3.70;3.40;;;14.30;99.90;;;;;;480521;247;28230;-68
2022/10/29 06:02:34;;;;;;;4.17;3.60;;;14.30;99.90;;;;;;480516;247;28205;-68
2022/10/29 06:04:35;;;;;;;4.00;3.40;;;14.20;99.90;;;;;;480517;247;28361;-68
2022/10/29 06:06:38;;;;;;;5.20;3.40;;;;;;;;;;480519;247;28347;-68
2022/10/29 06:08:39;;;;;;;4.50;3.50;;;14.30;99.90;;;;;;480540;247;26668;-68
2022/10/29 06:10:40;;;;;;;5.67;3.60;;;14.30;99.90;;;;;;480515;247;28191;-69
2022/10/29 06:12:41;;;;;;;4.60;3.33;;;14.30;99.90;;;;;;480520;247;28334;-69
2022/10/29 06:14:42;;;;;;;5.87;4.00;;;14.30;99.90;;;;;;480545;247;28486;-72
2022/10/29 06:16:44;;;;;;;3.70;3.37;;;14.30;99.90;;;;;;480522;247;28213;-69
2022/10/29 06:18:45;;;;;;;5.00;3.60;;;14.30;99.90;;;;;;480512;247;28439;-70
2022/10/29 06:20:46;;;;;;;3.57;3.07;;;14.30;99.90;;;;;;480535;247;28306;-69
2022/10/29 06:22:47;;;;;;;3.40;3.10;;;14.30;99.90;;;;;;480520;247;28328;-69
2022/10/29 06:24:49;;;;;;;6.33;3.37;;;14.30;99.90;;;;;;480526;247;28241;-71
2022/10/29 06:26:50;;;;;;;5.10;3.20;;;14.30;99.90;;;;;;480526;247;28805;-69
2022/10/29 06:28:51;;;;;;;4.30;3.60;;;14.40;99.90;;;;;;480516;247;29026;-68
2022/10/29 06:30:53;;;;;;;4.23;3.60;;;14.30;99.90;;;;;;480517;247;28744;-69
2022/10/29 06:32:54;;;;;;;3.60;3.30;;;14.40;99.90;;;;;;480518;247;28778;-67
2022/10/29 06:34:55;;;;;;;4.50;3.30;;;14.40;99.90;;;;;;480513;247;28539;-72
2022/10/29 06:36:56;;;;;;;4.60;3.60;;;14.40;99.90;;;;;;480502;247;28326;-69
2022/10/29 06:38:58;;;;;;;6.30;3.60;;;14.40;99.90;;;;;;480492;247;28478;-70
2022/10/29 06:40:59;;;;;;;6.10;3.57;;;14.40;99.90;;;;;;480487;247;28303;-69
2022/10/29 06:43:00;;;;;;;3.70;3.30;;;14.30;99.90;;;;;;480473;247;28510;-70
2022/10/29 06:45:01;;;;;;;5.60;3.53;;;14.20;99.90;;;;;;480510;247;28577;-71
2022/10/29 06:47:03;;;;;;;4.50;3.40;;;14.30;99.90;;;;;;480496;247;28226;-69
2022/10/29 06:49:04;;;;;;;5.10;4.10;;;14.30;99.90;;;;;;480538;247;28362;-70
2022/10/29 06:51:05;;;;;;;3.90;3.40;;;14.30;99.90;;;;;;480517;247;28531;-69
2022/10/29 06:53:06;;;;;;;5.63;3.57;;;14.40;99.90;;;;;;480554;247;29082;-70
2022/10/29 06:55:08;;;;;;;5.17;3.80;;;14.40;99.90;;;;;;480534;247;29284;-71
2022/10/29 06:57:09;;;;;;;4.03;3.63;;;14.60;99.90;;;;;;480527;247;28910;-69
2022/10/29 06:59:10;;;;;;;4.17;3.77;;;14.70;99.90;;;;;;480519;247;28341;-70
2022/10/29 07:01:11;;;;;;;4.33;3.80;;;14.70;99.90;;;;;;480500;247;28406;-69
2022/10/29 07:03:13;;;;;;;4.70;4.03;;;14.70;99.90;;;;;;480522;247;28511;-68
2022/10/29 07:05:14;;;;;;;9.10;3.90;;;14.70;99.90;;;;;;480525;247;28465;-71
2022/10/29 07:07:15;;;;;;;6.33;4.10;;;14.70;99.90;;;;;;480501;247;28426;-69
2022/10/29 07:09:16;;;;;;;3.97;3.57;;;14.70;99.90;;;;;;480502;247;28312;-70
2022/10/29 07:11:18;;;;;;;4.30;3.87;;;14.70;99.90;;;;;;480496;247;28469;-69
2022/10/29 07:13:19;;;;;;;5.17;3.93;;;14.70;99.90;;;;;;480498;247;28938;-68
2022/10/29 07:15:20;;;;;;;5.40;4.10;;;14.70;99.90;;;;;;480504;247;28702;-70
2022/10/29 07:17:21;;;;;;;4.20;3.80;;;14.70;99.90;;;;;;480467;247;28878;-69
2022/10/29 07:19:23;;;;;;;4.83;4.33;;;14.70;99.90;;;;;;480457;247;28939;-70
2022/10/29 07:21:24;;;;;;;7.87;4.00;;;14.80;99.90;;;;;;480476;247;29446;-72
2022/10/29 07:23:25;;;;;;;8.53;4.07;;;14.80;99.90;;;;;;480529;247;28524;-69
2022/10/29 07:25:26;;;;;;;5.00;3.80;;;14.80;99.90;;;;;;478254;247;28677;-70
2022/10/29 07:27:28;;;;;;;4.33;3.93;;;14.80;99.90;;;;;;464203;254;28589;-69
2022/10/29 07:29:29;;;;;;;4.37;3.43;;;14.90;99.90;;;;;;478238;249;29369;-69
2022/10/29 07:31:30;;;;;;;3.87;3.47;;;15.00;99.90;;;;;;459461;236;29382;-72
2022/10/29 07:33:31;;;;;;;6.30;4.20;;;15.10;99.90;;;;;;465904;252;28986;-68
2022/10/29 07:35:33;;;;;;;3.97;3.67;;;15.20;99.90;;;;;;465902;252;29444;-70
2022/10/29 07:37:34;;;;;;;3.53;3.20;;;15.20;99.90;;;;;;465899;255;28822;-69
2022/10/29 07:39:35;;;;;;;5.83;3.77;;;15.30;99.90;;;;;;465896;255;28843;-70
2022/10/29 07:41:36;;;;;;;4.30;3.90;;;15.40;99.90;;;;;;471405;244;28846;-71
2022/10/29 07:43:38;;;;;;;6.07;4.20;;;15.40;99.90;;;;;;469764;253;28801;-69
2022/10/29 07:45:39;;;;;;;5.23;3.80;;;15.50;99.90;;;;;;478358;248;28979;-70
2022/10/29 07:47:41;;;;;;;8.63;4.60;;;15.50;99.90;;;;;;470271;253;28938;-69
2022/10/29 07:49:41;;;;;;;4.07;3.60;;;15.50;99.90;;;;;;477185;249;28937;-70
2022/10/29 07:51:43;;;;;;;6.20;3.63;;;15.60;99.90;;;;;;477236;249;29141;-70
2022/10/29 07:53:44;;;;;;;5.20;3.57;;;15.70;99.90;;;;;;477224;249;29015;-70
2022/10/29 07:55:45;;;;;;;4.60;3.40;;;15.80;99.90;;;;;;477244;249;29399;-69
2022/10/29 07:57:46;;;;;;;5.60;4.20;;;15.90;99.90;;;;;;477200;249;30114;-69
2022/10/29 07:59:49;;;;;;;4.93;4.03;;;16.00;99.90;;;;;;477246;249;29316;-70
2022/10/29 08:01:49;;;;;;;6.63;4.00;;;16.00;99.90;;;;;;477188;249;29019;-71
2022/10/29 08:03:50;;;;;;;6.27;4.00;;;16.10;99.90;;;;;;477223;249;28864;-70
2022/10/29 08:05:51;;;;;;;4.20;3.73;;;16.20;99.90;;;;;;477121;249;28902;-70
2022/10/29 08:07:53;;;;;;;4.40;3.67;;;16.30;99.90;;;;;;477248;249;28980;-69
2022/10/29 08:09:54;;;;;;;4.83;3.53;;;16.40;99.90;;;;;;477169;249;28948;-70
2022/10/29 08:11:55;;;;;;;6.70;3.97;;;16.50;99.90;;;;;;477246;249;29012;-72
2022/10/29 08:13:56;;;;;;;3.83;3.43;;;16.60;99.90;;;;;;477195;249;28890;-70
2022/10/29 08:15:58;;;;;;;5.20;3.37;;;16.70;99.90;;;;;;477222;249;28932;-70
2022/10/29 08:17:59;;;;;;;4.87;3.40;;;16.90;99.90;;;;;;477239;249;28863;-70
2022/10/29 08:20:00;;;;;;;4.80;3.40;;;17.00;99.90;;;;;;477221;249;29306;-69
2022/10/29 08:22:01;;;;;;;4.20;3.37;;;17.10;99.90;;;;;;477237;249;29428;-70
2022/10/29 08:24:03;;;;;;;7.70;3.77;;;17.10;99.90;;;;;;477257;249;29349;-69
2022/10/29 08:26:04;;;;;;;10.37;3.30;;;17.10;99.90;;;;;;477237;249;29003;-70
2022/10/29 08:28:05;;;;;;;7.17;3.40;;;17.10;99.90;;;;;;477250;249;28923;-69
2022/10/29 08:30:06;;;;;;;3.87;2.90;;;17.10;99.90;;;;;;477240;249;29025;-70
2022/10/29 08:32:08;;;;;;;4.30;3.20;;;17.10;99.90;;;;;;477229;249;28911;-70
2022/10/29 08:34:09;;;;;;;6.73;3.40;;;17.10;99.90;;;;;;477236;249;28878;-69
2022/10/29 08:36:10;;;;;;;4.03;3.33;;;17.20;99.90;;;;;;477111;249;28942;-70
2022/10/29 08:38:11;;;;;;;4.03;3.57;;;17.40;99.90;;;;;;477115;249;29020;-71
2022/10/29 08:40:13;;;;;;;3.90;3.50;;;17.50;99.90;;;;;;477089;249;28891;-70
2022/10/29 08:42:14;;;;;;;4.70;3.27;;;17.60;99.90;;;;;;476931;249;29017;-70
2022/10/29 08:44:15;;;;;;;4.63;3.17;;;17.80;99.90;;;;;;477166;249;29385;-69
2022/10/29 08:46:16;;;;;;;6.30;3.10;;;17.80;99.90;;;;;;477233;249;29449;-69
2022/10/29 08:48:18;;;;;;;4.10;2.67;;;18.00;99.90;;;;;;478451;247;29383;-72
2022/10/29 08:50:19;;;;;;;4.37;2.93;;;18.10;99.90;;;;;;478544;248;28873;-69
2022/10/29 08:52:23;;;;;;;3.37;3.07;;;18.10;99.90;;;;;;478526;248;28964;-70
2022/10/29 08:54:21;;;;;;;4.20;3.23;;;18.20;99.90;;;;;;478404;248;28962;-70
2022/10/29 08:56:23;;;;;;;5.90;3.07;;;18.30;99.90;;;;;;478540;248;28974;-70
2022/10/29 08:58:24;;;;;;;4.10;3.17;;;18.30;99.90;;;;;;478527;248;28939;-71
2022/10/29 09:00:25;;;;;;;6.70;3.20;;;18.40;99.90;;;;;;478563;248;29048;-69
2022/10/29 09:02:28;;;;;;;5.77;3.47;;;18.40;99.90;;;;;;478555;248;28954;-70
2022/10/29 09:04:28;;;;;;;4.57;3.40;;;18.40;99.90;;;;;;478382;248;28957;-69
2022/10/29 09:06:29;;;;;;;6.30;3.73;;;18.60;99.90;;;;;;478544;248;28942;-71
2022/10/29 09:08:31;;;;;;;8.30;2.87;;;18.60;99.90;;;;;;478507;248;29492;-71
2022/10/29 09:10:32;;;;;;;7.90;3.50;;;18.70;99.90;;;;;;478472;248;29303;-69
2022/10/29 09:12:33;;;;;;;9.17;3.30;;;18.70;99.90;;;;;;478539;248;29414;-69
2022/10/29 09:14:34;;;;;;;3.47;3.17;;;18.80;99.90;;;;;;478501;248;29468;-69
2022/10/29 09:16:36;;;;;;;4.97;3.00;;;18.80;99.90;;;;;;478538;248;28870;-70
2022/10/29 09:18:36;;;;;;;3.93;2.73;;;18.80;99.90;;;;;;478509;248;28936;-70
2022/10/29 09:20:38;;;;;;;3.93;2.80;;;18.90;99.90;;;;;;478532;248;28878;-69
2022/10/29 09:22:39;;;;;;;4.03;3.20;;;18.90;99.90;;;;;;478059;244;28911;-70
2022/10/29 09:24:40;;;;;;;6.30;3.07;;;19.10;99.90;;;;;;474170;250;28924;-70
2022/10/29 09:26:41;;;;;;;3.77;2.77;;;19.20;99.90;;;;;;474194;251;28792;-70
2022/10/29 09:28:43;;;;;;;2.97;2.60;;;19.20;99.90;;;;;;474997;246;28901;-70
2022/10/29 09:30:44;;;;;;;3.93;3.00;;;19.20;99.90;;;;;;475724;244;28833;-70
2022/10/29 09:32:45;;;;;;;6.33;2.60;;;19.40;99.90;;;;;;474780;249;29250;-71
2022/10/29 09:34:47;;;;;;;6.60;3.00;;;19.40;99.90;;;;;;477471;246;29301;-71
2022/10/29 09:36:48;;;;;;;5.27;3.00;;;19.50;99.90;;;;;;476290;248;29353;-70
2022/10/29 09:38:49;;;;;;;3.90;3.00;;;19.50;99.90;;;;;;468274;254;29428;-71
2022/10/29 09:40:50;;;;;;;3.77;2.87;;;19.60;99.90;;;;;;471455;244;29003;-81
2022/10/29 09:42:52;;;;;;;6.90;2.90;;;19.70;99.90;;;;;;477549;245;29014;-86
2022/10/29 09:44:54;;;;;;;7.70;3.07;;;19.90;99.90;;;;;;477533;247;29015;-83
2022/10/29 09:46:54;;;;;;;5.20;3.60;;;19.90;99.90;;;;;;477514;248;29035;-84
2022/10/29 09:48:55;;;;;;;3.80;2.57;;;20.00;99.90;;;;;;477070;249;28837;-84
2022/10/29 09:50:57;;;;;;;5.23;2.60;;;20.00;99.90;;;;;;477035;245;30003;-82
2022/10/29 09:52:58;;;;;;;7.00;2.70;;;20.10;99.90;;;;;;476998;246;29521;-84
2022/10/29 09:54:59;;;;;;;6.80;2.80;;;20.10;99.90;;;;;;476910;247;29393;-83
2022/10/29 09:57:00;;;;;;;8.27;2.83;;;20.10;99.90;;;;;;477191;245;29528;-84
2022/10/29 09:59:02;;;;;;;3.77;2.73;;;20.30;99.90;;;;;;477595;244;29803;-84
2022/10/29 10:01:03;;;;;;;5.60;3.20;;;20.30;99.90;;;;;;477527;245;28980;-84
2022/10/29 10:03:04;;;;;;;3.67;2.50;;;20.50;99.90;;;;;;477562;244;29390;-84
2022/10/29 10:05:05;;;;;;;4.73;2.90;;;20.40;99.90;;;;;;477578;246;29010;-84
2022/10/29 10:07:07;;;;;;;3.80;2.87;;;20.40;99.90;;;;;;477559;246;29033;-85
2022/10/29 10:09:08;;;;;;;6.73;3.10;;;20.40;99.90;;;;;;477495;245;28910;-84
2022/10/29 10:11:09;;;;;;;6.23;2.63;;;20.50;99.90;;;;;;476988;245;29041;-83
2022/10/29 10:13:10;;;;;;;5.07;2.50;;;20.60;99.90;;;;;;469500;248;29589;-85
2022/10/29 10:15:12;;;;;;;6.70;2.57;;;20.60;99.90;;;;;;469590;250;29786;-83
2022/10/29 10:17:16;;;;;;;6.20;2.73;;;20.60;99.90;;;;;;469457;249;29611;-84
2022/10/29 10:19:14;;;;;;;5.00;3.17;;;20.60;99.90;;;;;;469167;252;28928;-83
2022/10/29 10:21:15;;;;;;;3.23;2.90;;;20.60;99.90;;;;;;471373;244;28950;-83
2022/10/29 10:23:17;;;;;;;4.20;2.80;;;20.70;99.90;;;;;;476217;250;28987;-83
2022/10/29 10:25:18;;;;;;;5.03;3.20;;;20.80;99.90;;;;;;476177;250;29297;-84
2022/10/29 10:27:19;;;;;;;4.23;3.03;;;20.80;99.90;;;;;;476235;250;29272;-83
2022/10/29 10:29:20;;;;;;;3.47;2.37;;;20.80;99.90;;;;;;476152;247;28898;-83
2022/10/29 10:31:22;;;;;;;3.40;2.30;;;20.80;99.90;;;;;;476562;244;28917;-83
2022/10/29 10:33:23;;;;;;;4.50;2.87;;;20.80;99.90;;;;;;477188;246;28957;-82